createdAt,value
2018-03-17T00:00:00.505Z,92.25
2018-03-17T00:01:00.513Z,92.02
2018-03-17T00:02:00.505Z,92.12
2018-03-17T00:03:00.506Z,92.23
2018-03-17T00:04:00.515Z,92.03
2018-03-17T00:05:00.513Z,91.8
2018-03-17T00:06:00.517Z,91.97
2018-03-17T00:07:00.520Z,92.11
2018-03-17T00:08:00.531Z,92.08
2018-03-17T00:09:00.535Z,92
2018-03-17T00:10:00.538Z,91.77
2018-03-17T00:11:00.546Z,92.09
2018-03-17T00:12:00.543Z,92.24
2018-03-17T00:13:00.540Z,91.94
2018-03-17T00:14:00.547Z,92.2
2018-03-17T00:15:00.546Z,91.81
2018-03-17T00:16:00.562Z,92.39
2018-03-17T00:17:00.546Z,92.41
2018-03-17T00:18:00.556Z,92.69
2018-03-17T00:19:00.561Z,92.44
2018-03-17T00:20:00.566Z,92.65
2018-03-17T00:21:00.570Z,92.69
2018-03-17T00:22:00.574Z,92.2
2018-03-17T00:23:00.571Z,92.28
2018-03-17T00:24:00.581Z,92.39
2018-03-17T00:25:00.587Z,92.52
2018-03-17T00:26:00.582Z,92.23
2018-03-17T00:27:00.594Z,92.34
2018-03-17T00:28:00.619Z,92.32
2018-03-17T00:29:00.626Z,91.82
2018-03-17T00:30:00.607Z,92.37
2018-03-17T00:31:07.542Z,92.3
2018-03-17T00:32:00.609Z,92.33
2018-03-17T00:33:00.603Z,91.98
2018-03-17T00:34:00.784Z,92.17
2018-03-17T00:35:00.611Z,92.33
2018-03-17T00:36:00.615Z,92.42
2018-03-17T00:37:00.624Z,92.37
2018-03-17T00:38:00.637Z,92.37
2018-03-17T00:39:00.648Z,91.89
2018-03-17T00:40:00.630Z,91.92
2018-03-17T00:41:00.630Z,91.85
2018-03-17T00:42:00.633Z,92.49
2018-03-17T00:43:00.639Z,92.46
2018-03-17T00:44:02.299Z,92.64
2018-03-17T00:45:00.653Z,92.6
2018-03-17T00:46:00.644Z,92.52
2018-03-17T00:47:00.654Z,92.33
2018-03-17T00:48:00.655Z,91.92
2018-03-17T00:49:00.647Z,91.91
2018-03-17T00:50:00.649Z,91.81
2018-03-17T00:51:00.681Z,91.08
2018-03-17T00:52:00.651Z,91.34
2018-03-17T00:53:00.653Z,91.42
2018-03-17T00:54:00.652Z,90.96
2018-03-17T00:55:00.656Z,91.49
2018-03-17T00:56:00.655Z,91.4
2018-03-17T00:57:00.666Z,91.67
2018-03-17T00:58:00.680Z,91.53
2018-03-17T00:59:00.680Z,90.95
2018-03-17T01:00:00.688Z,91.12
2018-03-17T01:01:00.692Z,91.13
2018-03-17T01:02:00.703Z,91.06
2018-03-17T01:03:00.699Z,90.48
2018-03-17T01:04:00.714Z,90.49
2018-03-17T01:05:00.713Z,90.53
2018-03-17T01:06:00.715Z,90.68
2018-03-17T01:07:00.727Z,90.48
2018-03-17T01:08:00.726Z,90.1
2018-03-17T01:09:00.725Z,90.36
2018-03-17T01:10:00.733Z,90.34
2018-03-17T01:11:00.736Z,90.61
2018-03-17T01:12:00.766Z,90.02
2018-03-17T01:13:00.745Z,90.05
2018-03-17T01:14:00.750Z,90.22
2018-03-17T01:15:00.784Z,89.78
2018-03-17T01:16:00.752Z,89.76
2018-03-17T01:17:00.748Z,89.92
2018-03-17T01:18:00.756Z,90.33
2018-03-17T01:19:00.785Z,89.79
2018-03-17T01:20:00.765Z,89.46
2018-03-17T01:21:00.762Z,89.5
2018-03-17T01:22:00.781Z,89.21
2018-03-17T01:23:00.791Z,88.89
2018-03-17T01:24:00.787Z,88.83
2018-03-17T01:25:00.789Z,89.04
2018-03-17T01:26:00.785Z,89.16
2018-03-17T01:27:00.795Z,89.18
2018-03-17T01:28:00.796Z,89.05
2018-03-17T01:29:00.815Z,89.36
2018-03-17T01:30:00.794Z,89.14
2018-03-17T01:31:00.795Z,88.12
2018-03-17T01:32:00.805Z,88.57
2018-03-17T01:33:00.806Z,88.17
2018-03-17T01:34:00.801Z,87.35
2018-03-17T01:35:00.806Z,87.77
2018-03-17T01:36:00.812Z,88.28
2018-03-17T01:37:00.816Z,88.11
2018-03-17T01:38:00.819Z,87.69
2018-03-17T01:39:00.816Z,87.04
2018-03-17T01:40:00.998Z,87.15
2018-03-17T01:41:00.825Z,87.94
2018-03-17T01:42:00.829Z,88.04
2018-03-17T01:43:00.832Z,88.3
2018-03-17T01:44:00.845Z,89.08
2018-03-17T01:45:00.863Z,88.52
2018-03-17T01:46:00.841Z,88.84
2018-03-17T01:47:00.843Z,87.71
2018-03-17T01:48:00.847Z,88.89
2018-03-17T01:49:00.844Z,88.67
2018-03-17T01:50:00.860Z,88.48
2018-03-17T01:51:00.841Z,87.5
2018-03-17T01:52:00.845Z,87.62
2018-03-17T01:53:00.856Z,87.97
2018-03-17T01:54:00.856Z,87.5
2018-03-17T01:55:00.867Z,87.2
2018-03-17T01:56:01.149Z,87.39
2018-03-17T01:57:00.873Z,87.53
2018-03-17T01:58:00.877Z,87.57
2018-03-17T01:59:00.874Z,88.69
2018-03-17T02:00:00.891Z,88.66
2018-03-17T02:01:00.916Z,88.54
2018-03-17T02:02:00.921Z,88.4
2018-03-17T02:03:00.910Z,89.84
2018-03-17T02:04:00.910Z,89.08
2018-03-17T02:05:00.910Z,89.58
2018-03-17T02:06:00.913Z,90.34
2018-03-17T02:07:00.933Z,90.13
2018-03-17T02:08:00.926Z,89.37
2018-03-17T02:09:00.922Z,87.98
2018-03-17T02:10:00.937Z,87.96
2018-03-17T02:11:00.931Z,87.92
2018-03-17T02:12:00.941Z,88.47
2018-03-17T02:13:00.948Z,88.51
2018-03-17T02:14:00.981Z,88.72
2018-03-17T02:15:00.949Z,88.98
2018-03-17T02:16:00.946Z,89.47
2018-03-17T02:17:00.951Z,89.29
2018-03-17T02:18:00.959Z,88.72
2018-03-17T02:19:00.981Z,89.9
2018-03-17T02:20:00.955Z,90.01
2018-03-17T02:21:00.962Z,89.92
2018-03-17T02:22:00.958Z,89.16
2018-03-17T02:23:00.966Z,89.54
2018-03-17T02:24:01.003Z,89.7
2018-03-17T02:25:00.976Z,89.47
2018-03-17T02:26:00.973Z,89.55
2018-03-17T02:27:00.973Z,88.62
2018-03-17T02:28:00.978Z,88.94
2018-03-17T02:29:01.001Z,88.68
2018-03-17T02:30:00.999Z,88.56
2018-03-17T02:31:00.984Z,88.81
2018-03-17T02:32:00.991Z,88.18
2018-03-17T02:33:00.995Z,88.91
2018-03-17T02:34:00.996Z,89.22
2018-03-17T02:35:00.995Z,88.98
2018-03-17T02:36:01.002Z,87.92
2018-03-17T02:37:01.005Z,88.01
2018-03-17T02:38:01.012Z,87.45
2018-03-17T02:39:01.023Z,87.29
2018-03-17T02:40:01.012Z,88.3
2018-03-17T02:41:01.017Z,87.08
2018-03-17T02:42:01.026Z,86.68
2018-03-17T02:43:01.035Z,86.72
2018-03-17T02:44:01.034Z,87.43
2018-03-17T02:45:01.046Z,87.42
2018-03-17T02:46:01.029Z,87.89
2018-03-17T02:47:01.038Z,88.39
2018-03-17T02:48:01.041Z,88.23
2018-03-17T02:49:01.040Z,85.49
2018-03-17T02:50:01.041Z,86.88
2018-03-17T02:51:01.040Z,87.16
2018-03-17T02:52:01.044Z,87.56
2018-03-17T02:53:01.052Z,86.03
2018-03-17T02:54:01.050Z,86.48
2018-03-17T02:55:01.049Z,86.63
2018-03-17T02:56:01.221Z,86.49
2018-03-17T02:57:01.056Z,86.2
2018-03-17T02:58:01.064Z,85.83
2018-03-17T02:59:01.064Z,85.54
2018-03-17T03:00:01.069Z,86.54
2018-03-17T03:01:01.094Z,85.62
2018-03-17T03:02:01.072Z,85.01
2018-03-17T03:03:01.078Z,84.82
2018-03-17T03:04:01.092Z,85.02
2018-03-17T03:05:01.101Z,85.92
2018-03-17T03:06:01.131Z,86.68
2018-03-17T03:07:01.108Z,85.75
2018-03-17T03:08:01.106Z,85.53
2018-03-17T03:09:01.111Z,84.94
2018-03-17T03:10:01.114Z,85.51
2018-03-17T03:11:01.144Z,85.17
2018-03-17T03:12:01.128Z,85.34
2018-03-17T03:13:01.133Z,85
2018-03-17T03:14:01.132Z,85.81
2018-03-17T03:15:01.141Z,85.35
2018-03-17T03:16:01.274Z,85.13
2018-03-17T03:17:01.145Z,85.37
2018-03-17T03:18:01.138Z,85.45
2018-03-17T03:19:01.145Z,85.74
2018-03-17T03:20:01.147Z,85.65
2018-03-17T03:21:01.168Z,85.93
2018-03-17T03:22:01.152Z,85.72
2018-03-17T03:23:01.150Z,85.32
2018-03-17T03:24:01.152Z,85.61
2018-03-17T03:25:01.151Z,85.33
2018-03-17T03:26:01.152Z,84.84
2018-03-17T03:27:01.183Z,82.91
2018-03-17T03:28:01.157Z,83.29
2018-03-17T03:29:01.169Z,83.37
2018-03-17T03:30:01.171Z,83.78
2018-03-17T03:31:01.179Z,84.5
2018-03-17T03:32:01.189Z,83.7
2018-03-17T03:33:01.193Z,83.35
2018-03-17T03:34:01.190Z,83.82
2018-03-17T03:35:01.210Z,84.28
2018-03-17T03:36:01.199Z,83.38
2018-03-17T03:37:01.213Z,83.76
2018-03-17T03:38:01.205Z,83
2018-03-17T03:39:01.211Z,82.51
2018-03-17T03:40:01.219Z,82.27
2018-03-17T03:41:01.239Z,82.39
2018-03-17T03:42:01.225Z,82.32
2018-03-17T03:43:01.218Z,82.33
2018-03-17T03:44:01.224Z,82.61
2018-03-17T03:45:01.216Z,82.14
2018-03-17T03:46:01.242Z,82.76
2018-03-17T03:47:01.225Z,81.96
2018-03-17T03:48:01.232Z,83.02
2018-03-17T03:49:01.233Z,83.02
2018-03-17T03:50:01.234Z,82.19
2018-03-17T03:51:01.240Z,82.23
2018-03-17T03:52:01.249Z,82.5
2018-03-17T03:53:01.253Z,81.76
2018-03-17T03:54:01.253Z,82.32
2018-03-17T03:55:01.268Z,82.47
2018-03-17T03:56:01.266Z,81.06
2018-03-17T03:57:01.263Z,81.77
2018-03-17T03:58:01.267Z,82.57
2018-03-17T03:59:01.285Z,81.19
2018-03-17T04:00:01.268Z,81.7
2018-03-17T04:01:01.280Z,81.9
2018-03-17T04:02:01.400Z,82.06
2018-03-17T04:03:01.289Z,81.79
2018-03-17T04:04:01.303Z,81.64
2018-03-17T04:05:01.295Z,80.97
2018-03-17T04:06:01.302Z,81.44
2018-03-17T04:07:01.336Z,81.31
2018-03-17T04:08:01.305Z,82.02
2018-03-17T04:09:01.321Z,80.77
2018-03-17T04:10:01.327Z,81.34
2018-03-17T04:11:01.321Z,80.98
2018-03-17T04:12:01.315Z,81.44
2018-03-17T04:13:01.331Z,81.96
2018-03-17T04:14:01.323Z,81.11
2018-03-17T04:15:01.337Z,81.35
2018-03-17T04:16:01.339Z,82.14
2018-03-17T04:17:01.342Z,81.44
2018-03-17T04:18:01.350Z,81.98
2018-03-17T04:19:01.348Z,81.95
2018-03-17T04:20:01.348Z,82.22
2018-03-17T04:21:01.350Z,82.48
2018-03-17T04:22:01.355Z,82.12
2018-03-17T04:23:01.360Z,82.29
2018-03-17T04:24:01.361Z,82.54
2018-03-17T04:25:01.374Z,82
2018-03-17T04:26:01.372Z,82
2018-03-17T04:27:01.372Z,81.63
2018-03-17T04:28:01.398Z,81.76
2018-03-17T04:29:01.379Z,82.19
2018-03-17T04:30:01.387Z,82.14
2018-03-17T04:31:01.403Z,82.62
2018-03-17T04:32:01.397Z,82.1
2018-03-17T04:33:01.396Z,82.55
2018-03-17T04:34:01.400Z,82.8
2018-03-17T04:35:01.410Z,82.13
2018-03-17T04:36:01.411Z,82.81
2018-03-17T04:37:01.417Z,82.59
2018-03-17T04:38:01.451Z,82.49
2018-03-17T04:39:01.427Z,82.53
2018-03-17T04:40:01.433Z,82.38
2018-03-17T04:41:01.445Z,82.02
2018-03-17T04:42:01.436Z,82.5
2018-03-17T04:43:01.462Z,82.36
2018-03-17T04:44:01.450Z,82.01
2018-03-17T04:45:01.457Z,82.18
2018-03-17T04:46:01.472Z,82.12
2018-03-17T04:47:01.462Z,82.52
2018-03-17T04:48:01.468Z,82.69
2018-03-17T04:49:01.458Z,82.66
2018-03-17T04:50:01.468Z,81.57
2018-03-17T04:51:01.466Z,81.93
2018-03-17T04:52:01.476Z,81.81
2018-03-17T04:53:01.482Z,81.7
2018-03-17T04:54:01.487Z,82.41
2018-03-17T04:55:01.482Z,82.68
2018-03-17T04:56:01.510Z,83.1
2018-03-17T04:57:01.494Z,82.46
2018-03-17T04:58:01.516Z,82.03
2018-03-17T04:59:01.494Z,82.62
2018-03-17T05:00:01.544Z,82.92
2018-03-17T05:01:01.501Z,81.98
2018-03-17T05:02:01.500Z,82.49
2018-03-17T05:03:01.505Z,81.57
2018-03-17T05:04:01.508Z,81.87
2018-03-17T05:05:01.540Z,82.31
2018-03-17T05:06:01.517Z,82.21
2018-03-17T05:07:01.523Z,81.75
2018-03-17T05:08:01.534Z,82.35
2018-03-17T05:09:01.545Z,82.12
2018-03-17T05:10:01.615Z,81.29
2018-03-17T05:11:01.547Z,81.63
2018-03-17T05:12:01.556Z,81.61
2018-03-17T05:13:01.551Z,81.8
2018-03-17T05:14:01.554Z,82.79
2018-03-17T05:15:01.562Z,81.59
2018-03-17T05:16:01.568Z,81.52
2018-03-17T05:17:01.578Z,81.59
2018-03-17T05:18:01.573Z,81.74
2018-03-17T05:19:01.586Z,81.76
2018-03-17T05:20:01.606Z,82.7
2018-03-17T05:21:01.594Z,82.13
2018-03-17T05:22:01.604Z,81.94
2018-03-17T05:23:01.595Z,81.94
2018-03-17T05:24:01.593Z,81.53
2018-03-17T05:25:01.595Z,81.2
2018-03-17T05:26:01.620Z,80.5
2018-03-17T05:27:01.611Z,80.49
2018-03-17T05:28:01.614Z,79.49
2018-03-17T05:29:01.620Z,79.57
2018-03-17T05:30:01.650Z,79.38
2018-03-17T05:31:01.628Z,80.14
2018-03-17T05:32:01.619Z,80.1
2018-03-17T05:33:01.644Z,80.84
2018-03-17T05:34:01.624Z,80.78
2018-03-17T05:35:01.655Z,80
2018-03-17T05:36:01.635Z,79.36
2018-03-17T05:37:01.636Z,79.82
2018-03-17T05:38:01.679Z,80.04
2018-03-17T05:39:01.645Z,79.89
2018-03-17T05:40:01.649Z,80.22
2018-03-17T05:41:01.653Z,79.39
2018-03-17T05:42:01.661Z,79.54
2018-03-17T05:43:01.664Z,79.61
2018-03-17T05:44:01.672Z,79.99
2018-03-17T05:45:01.675Z,79.14
2018-03-17T05:46:01.688Z,79.35
2018-03-17T05:47:01.693Z,79.96
2018-03-17T05:48:01.700Z,80.04
2018-03-17T05:49:01.692Z,80.58
2018-03-17T05:50:01.710Z,79.82
2018-03-17T05:51:01.696Z,79.35
2018-03-17T05:52:02.143Z,79.81
2018-03-17T05:53:01.721Z,79.44
2018-03-17T05:54:01.758Z,79.91
2018-03-17T05:55:01.706Z,78.9
2018-03-17T05:56:01.709Z,79.05
2018-03-17T05:57:01.719Z,79.18
2018-03-17T05:58:01.712Z,79.54
2018-03-17T05:59:01.715Z,79.32
2018-03-17T06:00:01.722Z,78.7
2018-03-17T06:01:01.729Z,78.47
2018-03-17T06:02:01.724Z,79
2018-03-17T06:03:01.729Z,79.23
2018-03-17T06:04:01.733Z,78.75
2018-03-17T06:05:01.797Z,79.6
2018-03-17T06:06:01.740Z,79.16
2018-03-17T06:07:01.746Z,78.68
2018-03-17T06:08:01.766Z,77.92
2018-03-17T06:09:01.751Z,78.27
2018-03-17T06:10:01.757Z,78.52
2018-03-17T06:11:01.764Z,78.45
2018-03-17T06:12:01.760Z,79.16
2018-03-17T06:13:01.765Z,79.06
2018-03-17T06:14:01.795Z,78.53
2018-03-17T06:15:01.771Z,79.16
2018-03-17T06:16:01.789Z,78.52
2018-03-17T06:17:01.788Z,78.17
2018-03-17T06:18:01.781Z,78.77
2018-03-17T06:19:01.794Z,78.02
2018-03-17T06:20:01.796Z,78.13
2018-03-17T06:21:01.802Z,78.4
2018-03-17T06:22:01.813Z,78.65
2018-03-17T06:23:01.813Z,78.66
2018-03-17T06:24:01.824Z,78.62
2018-03-17T06:25:01.834Z,78.73
2018-03-17T06:26:01.836Z,78.72
2018-03-17T06:27:01.840Z,79.21
2018-03-17T06:28:01.847Z,78.74
2018-03-17T06:29:01.850Z,78.49
2018-03-17T06:30:01.847Z,78.18
2018-03-17T06:31:01.845Z,77.89
2018-03-17T06:32:01.855Z,77.9
2018-03-17T06:33:01.864Z,78.68
2018-03-17T06:34:01.866Z,78.75
2018-03-17T06:35:01.870Z,78.63
2018-03-17T06:36:01.877Z,78.32
2018-03-17T06:37:01.880Z,78.54
2018-03-17T06:38:01.883Z,78.15
2018-03-17T06:39:01.889Z,78.47
2018-03-17T06:40:01.896Z,79.8
2018-03-17T06:41:01.894Z,79.29
2018-03-17T06:42:01.898Z,78.34
2018-03-17T06:43:01.902Z,79.06
2018-03-17T06:44:01.918Z,78.8
2018-03-17T06:45:01.914Z,78.72
2018-03-17T06:46:01.921Z,78.99
2018-03-17T06:47:01.923Z,78.92
2018-03-17T06:48:01.924Z,79.13
2018-03-17T06:49:01.926Z,79.03
2018-03-17T06:50:01.934Z,78.62
2018-03-17T06:51:01.935Z,77.56
2018-03-17T06:52:01.939Z,77.96
2018-03-17T06:53:01.945Z,77.93
2018-03-17T06:54:01.974Z,77.96
2018-03-17T06:55:01.952Z,78.6
2018-03-17T06:56:01.957Z,78.74
2018-03-17T06:57:01.962Z,78.91
2018-03-17T06:58:01.967Z,77.69
2018-03-17T06:59:02.021Z,77.68
2018-03-17T07:00:01.984Z,77.79
2018-03-17T07:01:01.989Z,77.27
2018-03-17T07:02:01.996Z,78.06
2018-03-17T07:03:01.981Z,78.05
2018-03-17T07:04:02.011Z,78.28
2018-03-17T07:05:01.988Z,78.11
2018-03-17T07:06:01.994Z,78.64
2018-03-17T07:07:02.009Z,78.66
2018-03-17T07:08:01.999Z,77.8
2018-03-17T07:09:02.022Z,78.24
2018-03-17T07:10:02.013Z,78.29
2018-03-17T07:11:02.023Z,78.36
2018-03-17T07:12:02.013Z,78.59
2018-03-17T07:13:02.021Z,78.51
2018-03-17T07:14:02.019Z,79.2
2018-03-17T07:15:02.021Z,79.43
2018-03-17T07:16:02.024Z,78.49
2018-03-17T07:17:02.030Z,78.61
2018-03-17T07:18:02.035Z,78.77
2018-03-17T07:19:02.031Z,78.67
2018-03-17T07:20:02.041Z,78.9
2018-03-17T07:21:02.042Z,79.32
2018-03-17T07:22:02.040Z,79.2
2018-03-17T07:23:02.051Z,79.12
2018-03-17T07:24:02.045Z,78.92
2018-03-17T07:25:02.053Z,78.7
2018-03-17T07:26:02.056Z,79.46
2018-03-17T07:27:02.062Z,78.76
2018-03-17T07:28:02.063Z,79.15
2018-03-17T07:29:02.060Z,79.15
2018-03-17T07:31:02.077Z,79.14
2018-03-17T07:32:02.081Z,78.6
2018-03-17T07:33:02.084Z,78.59
2018-03-17T07:34:02.081Z,79.47
2018-03-17T07:35:02.089Z,79.12
2018-03-17T07:36:02.093Z,79.41
2018-03-17T07:37:02.119Z,79.23
2018-03-17T07:38:02.094Z,79.22
2018-03-17T07:39:02.095Z,79.92
2018-03-17T07:40:02.095Z,78.55
2018-03-17T07:41:02.105Z,79
2018-03-17T07:42:02.106Z,78.78
2018-03-17T07:43:02.104Z,79.02
2018-03-17T07:44:02.101Z,78.82
2018-03-17T07:45:02.111Z,78.77
2018-03-17T07:46:02.140Z,78.13
2018-03-17T07:47:02.122Z,78.05
2018-03-17T07:48:02.124Z,77.06
2018-03-17T07:49:02.120Z,76.91
2018-03-17T07:50:02.122Z,76.66
2018-03-17T07:51:02.123Z,76.83
2018-03-17T07:52:02.131Z,76.46
2018-03-17T07:53:02.127Z,76.66
2018-03-17T07:54:02.133Z,76.9
2018-03-17T07:55:02.140Z,77.01
2018-03-17T07:56:02.137Z,77.22
2018-03-17T07:57:02.143Z,77.35
2018-03-17T07:58:02.149Z,76.98
2018-03-17T07:59:02.158Z,76.79
2018-03-17T08:00:02.152Z,76.49
2018-03-17T08:01:02.186Z,76.95
2018-03-17T08:02:02.155Z,76.73
2018-03-17T08:03:02.159Z,76.91
2018-03-17T08:04:02.166Z,77.22
2018-03-17T08:05:02.179Z,76.97
2018-03-17T08:06:02.169Z,77.23
2018-03-17T08:07:02.176Z,76.72
2018-03-17T08:08:02.184Z,77.02
2018-03-17T08:09:02.184Z,76.96
2018-03-17T08:10:02.189Z,77.42
2018-03-17T08:11:02.206Z,76.91
2018-03-17T08:12:02.204Z,76.8
2018-03-17T08:13:02.212Z,77.05
2018-03-17T08:14:02.244Z,76.61
2018-03-17T08:15:02.205Z,76.23
2018-03-17T08:16:02.218Z,76.8
2018-03-17T08:17:02.231Z,77.01
2018-03-17T08:18:02.211Z,77.24
2018-03-17T08:19:02.219Z,77.63
2018-03-17T08:20:02.232Z,77.62
2018-03-17T08:21:02.225Z,77.6
2018-03-17T08:22:02.231Z,77.45
2018-03-17T08:23:02.358Z,77.56
2018-03-17T08:24:02.237Z,76.54
2018-03-17T08:25:02.239Z,76.38
2018-03-17T08:26:02.238Z,76.4
2018-03-17T08:27:02.243Z,76.5
2018-03-17T08:28:02.292Z,76.68
2018-03-17T08:29:02.264Z,76.8
2018-03-17T08:30:02.261Z,77.2
2018-03-17T08:31:02.257Z,76.51
2018-03-17T08:32:02.265Z,76.98
2018-03-17T08:33:02.297Z,76.33
2018-03-17T08:34:02.279Z,76.53
2018-03-17T08:35:02.286Z,76.23
2018-03-17T08:36:02.295Z,76.33
2018-03-17T08:37:02.305Z,76.35
2018-03-17T08:38:02.313Z,76.23
2018-03-17T08:39:02.303Z,76.36
2018-03-17T08:40:02.296Z,76.3
2018-03-17T08:41:02.304Z,75.95
2018-03-17T08:42:02.305Z,76.62
2018-03-17T08:43:02.334Z,75.88
2018-03-17T08:44:02.315Z,76
2018-03-17T08:45:02.319Z,76.5
2018-03-17T08:46:02.320Z,76.87
2018-03-17T08:47:02.329Z,76.57
2018-03-17T08:48:02.346Z,76.58
2018-03-17T08:49:02.330Z,76.67
2018-03-17T08:50:02.332Z,76.73
2018-03-17T08:51:02.347Z,76.37
2018-03-17T08:52:02.341Z,76.45
2018-03-17T08:53:02.362Z,76.94
2018-03-17T08:54:02.357Z,77.18
2018-03-17T08:55:02.371Z,75.88
2018-03-17T08:56:02.371Z,76.46
2018-03-17T08:57:02.364Z,76.44
2018-03-17T08:58:02.370Z,76.01
2018-03-17T08:59:02.367Z,76.28
2018-03-17T09:00:02.370Z,76.47
2018-03-17T09:01:02.383Z,76.8
2018-03-17T09:02:02.376Z,76.17
2018-03-17T09:03:02.381Z,76.29
2018-03-17T09:04:02.382Z,76.15
2018-03-17T09:05:02.387Z,76.7
2018-03-17T09:06:02.389Z,76.79
2018-03-17T09:07:02.390Z,75.92
2018-03-17T09:08:02.391Z,75.63
2018-03-17T09:09:02.400Z,75.53
2018-03-17T09:10:02.393Z,75.32
2018-03-17T09:11:02.395Z,75.5
2018-03-17T09:12:02.413Z,75.75
2018-03-17T09:13:02.405Z,74.94
2018-03-17T09:14:02.403Z,74.69
2018-03-17T09:15:02.420Z,74.82
2018-03-17T09:16:02.401Z,75.26
2018-03-17T09:17:02.404Z,75.09
2018-03-17T09:18:02.464Z,75.51
2018-03-17T09:19:02.413Z,75.5
2018-03-17T09:20:02.413Z,75.65
2018-03-17T09:21:02.418Z,75.55
2018-03-17T09:22:02.426Z,75.62
2018-03-17T09:23:02.431Z,75.21
2018-03-17T09:24:02.438Z,75.42
2018-03-17T09:25:02.473Z,75.71
2018-03-17T09:26:02.431Z,75.26
2018-03-17T09:27:02.434Z,75.22
2018-03-17T09:28:02.446Z,75.22
2018-03-17T09:29:02.443Z,74.85
2018-03-17T09:30:02.468Z,75.27
2018-03-17T09:31:02.442Z,74.55
2018-03-17T09:32:02.447Z,74.99
2018-03-17T09:33:02.450Z,75.21
2018-03-17T09:34:02.477Z,75.26
2018-03-17T09:35:02.463Z,74.78
2018-03-17T09:36:02.464Z,74.66
2018-03-17T09:37:02.476Z,75.07
2018-03-17T09:38:02.476Z,75.3
2018-03-17T09:39:02.503Z,75.33
2018-03-17T09:40:02.477Z,75.24
2018-03-17T09:41:02.483Z,75.07
2018-03-17T09:42:02.493Z,75.22
2018-03-17T09:43:02.491Z,75.03
2018-03-17T09:44:02.516Z,74.76
2018-03-17T09:45:02.496Z,73.95
2018-03-17T09:46:02.506Z,74.44
2018-03-17T09:47:02.502Z,75.2
2018-03-17T09:48:02.504Z,75.36
2018-03-17T09:49:02.538Z,75.37
2018-03-17T09:50:02.510Z,75.04
2018-03-17T09:51:02.510Z,75.07
2018-03-17T09:52:02.512Z,75.01
2018-03-17T09:53:02.528Z,75.3
2018-03-17T09:54:02.520Z,74.54
2018-03-17T09:55:02.556Z,75.23
2018-03-17T09:56:02.524Z,75.02
2018-03-17T09:57:02.529Z,75.34
2018-03-17T09:58:02.532Z,74.96
2018-03-17T09:59:02.536Z,74.39
2018-03-17T10:00:02.554Z,74.43
2018-03-17T10:01:02.533Z,74.57
2018-03-17T10:02:02.541Z,74.99
2018-03-17T10:03:02.542Z,74.44
2018-03-17T10:04:02.540Z,75.02
2018-03-17T10:05:02.539Z,74.69
2018-03-17T10:06:02.545Z,74.35
2018-03-17T10:07:02.547Z,74.25
2018-03-17T10:08:02.541Z,74.23
2018-03-17T10:09:02.553Z,74.34
2018-03-17T10:10:02.608Z,74.15
2018-03-17T10:11:02.561Z,74.28
2018-03-17T10:12:02.560Z,74.82
2018-03-17T10:13:02.565Z,74.3
2018-03-17T10:14:02.557Z,73.37
2018-03-17T10:15:02.590Z,73.42
2018-03-17T10:16:02.565Z,73.29
2018-03-17T10:17:02.564Z,72.98
2018-03-17T10:18:02.567Z,73.11
2018-03-17T10:19:02.567Z,72.74
2018-03-17T10:20:02.567Z,72.72
2018-03-17T10:21:02.573Z,73.02
2018-03-17T10:22:02.588Z,72.69
2018-03-17T10:23:02.576Z,73.17
2018-03-17T10:24:02.601Z,72.86
2018-03-17T10:25:02.609Z,73.24
2018-03-17T10:26:02.598Z,73.21
2018-03-17T10:27:02.598Z,73.44
2018-03-17T10:28:02.601Z,73.87
2018-03-17T10:29:02.604Z,74.32
2018-03-17T10:30:02.640Z,74.26
2018-03-17T10:31:02.608Z,74.29
2018-03-17T10:32:02.612Z,74.18
2018-03-17T10:33:02.622Z,74.19
2018-03-17T10:34:02.645Z,74.14
2018-03-17T10:35:02.918Z,74.36
2018-03-17T10:36:02.649Z,74.26
2018-03-17T10:37:02.635Z,73.69
2018-03-17T10:38:02.625Z,74.39
2018-03-17T10:39:02.634Z,74.17
2018-03-17T10:40:02.647Z,74.18
2018-03-17T10:41:02.764Z,74.16
2018-03-17T10:42:02.632Z,73.29
2018-03-17T10:43:02.677Z,73.38
2018-03-17T10:44:02.640Z,73.46
2018-03-17T10:45:02.642Z,73.73
2018-03-17T10:46:02.667Z,73.53
2018-03-17T10:47:02.720Z,73.94
2018-03-17T10:48:02.642Z,74.16
2018-03-17T10:49:03.594Z,73.88
2018-03-17T10:50:02.655Z,73.95
2018-03-17T10:51:02.660Z,74.06
2018-03-17T10:52:02.659Z,73.88
2018-03-17T10:53:02.666Z,74.24
2018-03-17T10:54:02.673Z,73.69
2018-03-17T10:55:02.674Z,73.62
2018-03-17T10:56:02.668Z,73.5
2018-03-17T10:57:02.677Z,73.52
2018-03-17T10:58:02.679Z,73.71
2018-03-17T10:59:02.675Z,73.21
2018-03-17T11:00:02.688Z,72.73
2018-03-17T11:01:02.685Z,73.16
2018-03-17T11:02:02.692Z,73.44
2018-03-17T11:03:02.740Z,73.78
2018-03-17T11:04:02.689Z,72.67
2018-03-17T11:05:02.696Z,73.08
2018-03-17T11:06:02.774Z,73.53
2018-03-17T11:07:02.728Z,72.92
2018-03-17T11:08:02.695Z,72.77
2018-03-17T11:09:02.700Z,73.28
2018-03-17T11:10:02.697Z,73.42
2018-03-17T11:11:02.730Z,72.6
2018-03-17T11:12:02.715Z,72.27
2018-03-17T11:13:02.710Z,72.95
2018-03-17T11:14:02.720Z,72.55
2018-03-17T11:15:02.723Z,72.64
2018-03-17T11:16:02.724Z,72.14
2018-03-17T11:17:02.730Z,72.34
2018-03-17T11:18:02.736Z,72.91
2018-03-17T11:19:02.751Z,72.21
2018-03-17T11:20:02.742Z,72.68
2018-03-17T11:21:02.785Z,72.85
2018-03-17T11:22:02.750Z,72.34
2018-03-17T11:23:02.827Z,72.34
2018-03-17T11:24:02.766Z,72.15
2018-03-17T11:25:02.758Z,72.45
2018-03-17T11:26:02.759Z,71.93
2018-03-17T11:27:02.762Z,72.17
2018-03-17T11:28:02.796Z,71.9
2018-03-17T11:29:02.776Z,72.3
2018-03-17T11:30:02.781Z,72.47
2018-03-17T11:31:02.780Z,72.03
2018-03-17T11:32:02.796Z,72.06
2018-03-17T11:33:02.850Z,72.12
2018-03-17T11:34:02.810Z,71.94
2018-03-17T11:35:02.800Z,72.35
2018-03-17T11:36:02.800Z,71.81
2018-03-17T11:37:02.804Z,72
2018-03-17T11:38:02.803Z,72.25
2018-03-17T11:39:02.825Z,71.94
2018-03-17T11:40:02.796Z,72.24
2018-03-17T11:41:02.812Z,72.4
2018-03-17T11:42:02.808Z,72.09
2018-03-17T11:43:02.809Z,72.16
2018-03-17T11:44:02.842Z,72.07
2018-03-17T11:45:02.837Z,72.16
2018-03-17T11:46:02.856Z,72.43
2018-03-17T11:47:02.864Z,72.03
2018-03-17T11:48:02.863Z,72.4
2018-03-17T11:49:02.834Z,72.38
2018-03-17T11:50:02.840Z,72.16
2018-03-17T11:51:02.846Z,72.26
2018-03-17T11:52:02.845Z,72.05
2018-03-17T11:53:02.897Z,72.1
2018-03-17T11:54:02.905Z,72.63
2018-03-17T11:55:02.870Z,72.68
2018-03-17T11:56:02.852Z,72.48
2018-03-17T11:57:02.920Z,72.2
2018-03-17T11:58:02.858Z,72.03
2018-03-17T11:59:02.859Z,72.13
2018-03-17T12:00:02.951Z,71.84
2018-03-17T12:01:02.960Z,71.59
2018-03-17T12:02:02.960Z,72.06
2018-03-17T12:03:02.968Z,71.65
2018-03-17T12:04:02.973Z,71.55
2018-03-17T12:05:02.981Z,71.55
2018-03-17T12:06:02.982Z,71.61
2018-03-17T12:07:02.990Z,72.41
2018-03-17T12:08:02.997Z,72.57
2018-03-17T12:09:03.004Z,71.55
2018-03-17T12:10:02.953Z,71.44
2018-03-17T12:11:03.179Z,71.37
2018-03-17T12:12:03.027Z,71.31
2018-03-17T12:13:02.912Z,71.27
2018-03-17T12:14:02.942Z,71.33
2018-03-17T12:15:02.944Z,71.25
2018-03-17T12:16:03.050Z,71.38
2018-03-17T12:17:02.928Z,71.64
2018-03-17T12:18:02.991Z,71.44
2018-03-17T12:19:02.971Z,71.53
2018-03-17T12:20:03.081Z,70.79
2018-03-17T12:21:02.990Z,71.1
2018-03-17T12:22:02.993Z,71.22
2018-03-17T12:23:03.018Z,71.7
2018-03-17T12:24:03.010Z,71.36
2018-03-17T12:25:02.979Z,71.24
2018-03-17T12:26:03.026Z,71.33
2018-03-17T12:27:03.026Z,71.71
2018-03-17T12:28:03.040Z,70.98
2018-03-17T12:29:03.042Z,71.18
2018-03-17T12:30:03.049Z,71.13
2018-03-17T12:31:03.062Z,71.34
2018-03-17T12:32:03.064Z,71.35
2018-03-17T12:33:02.990Z,71.56
2018-03-17T12:34:03.079Z,71.62
2018-03-17T12:35:02.996Z,71.31
2018-03-17T12:36:03.098Z,70.6
2018-03-17T12:37:03.203Z,70.63
2018-03-17T12:38:03.112Z,71.13
2018-03-17T12:39:03.110Z,70.76
2018-03-17T12:40:03.116Z,70.87
2018-03-17T12:41:03.009Z,70.98
2018-03-17T12:42:03.134Z,71.1
2018-03-17T12:43:03.040Z,71.14
2018-03-17T12:44:03.044Z,71.58
2018-03-17T12:45:03.013Z,71.82
2018-03-17T12:46:03.015Z,71.21
2018-03-17T12:47:03.076Z,70.86
2018-03-17T12:48:03.016Z,71.04
2018-03-17T12:49:03.072Z,71.33
2018-03-17T12:50:03.023Z,71.02
2018-03-17T12:51:03.025Z,70.59
2018-03-17T12:52:03.058Z,70.68
2018-03-17T12:53:03.025Z,70.73
2018-03-17T12:54:03.033Z,70.46
2018-03-17T12:55:03.038Z,70.41
2018-03-17T12:56:03.125Z,70.12
2018-03-17T12:57:03.143Z,70.09